createdAt,value
2023-10-17T00:01:14.532Z,1.93
2023-10-17T00:03:46.937Z,2.17
2023-10-17T00:06:18.091Z,2.20
2023-10-17T00:08:52.512Z,1.63
2023-10-17T00:11:27.842Z,1.63
2023-10-17T00:14:09.125Z,1.60
2023-10-17T00:16:38.820Z,1.93
2023-10-17T00:19:10.833Z,1.00
2023-10-17T00:21:40.893Z,1.33
2023-10-17T00:24:10.990Z,1.63
2023-10-17T00:26:38.937Z,1.17
2023-10-17T00:29:08.764Z,1.50
2023-10-17T00:31:37.735Z,1.40
2023-10-17T00:34:14.335Z,1.43
2023-10-17T00:36:50.710Z,1.40
2023-10-17T00:39:24.688Z,1.63
2023-10-17T00:42:03.948Z,1.70
2023-10-17T00:44:32.346Z,1.50
2023-10-17T00:47:00.938Z,2.00
2023-10-17T00:49:30.347Z,1.93
2023-10-17T00:52:00.951Z,1.60
2023-10-17T00:54:31.005Z,1.33
2023-10-17T00:57:01.378Z,1.30
2023-10-17T00:59:31.664Z,1.43
2023-10-17T01:02:00.053Z,1.83
2023-10-17T01:04:30.314Z,1.53
2023-10-17T01:07:07.040Z,1.50
2023-10-17T01:09:35.837Z,1.63
2023-10-17T01:12:09.861Z,1.03
2023-10-17T01:14:38.201Z,1.53
2023-10-17T01:17:09.109Z,1.30
2023-10-17T01:19:37.804Z,0.93
2023-10-17T01:22:07.509Z,1.23
2023-10-17T01:24:37.258Z,1.40
2023-10-17T01:27:07.550Z,1.80
2023-10-17T01:29:36.387Z,1.80
2023-10-17T01:32:07.173Z,1.13
2023-10-17T01:34:37.688Z,1.20
2023-10-17T01:37:08.401Z,1.53
2023-10-17T01:39:39.100Z,1.73
2023-10-17T01:42:07.752Z,1.57
2023-10-17T01:44:36.486Z,1.30
2023-10-17T01:47:08.963Z,1.80
2023-10-17T01:49:38.369Z,1.67
2023-10-17T01:52:08.399Z,1.60
2023-10-17T01:54:38.881Z,1.57
2023-10-17T01:57:09.157Z,1.07
2023-10-17T01:59:37.506Z,1.80
2023-10-17T02:02:06.321Z,1.83
2023-10-17T02:04:37.033Z,1.70
2023-10-17T02:07:05.714Z,1.60
2023-10-17T02:09:49.755Z,1.57
2023-10-17T02:12:21.250Z,2.03
2023-10-17T02:14:49.723Z,1.90
2023-10-17T02:17:19.606Z,1.43
2023-10-17T02:19:49.002Z,1.70
2023-10-17T02:22:18.055Z,1.80
2023-10-17T02:24:46.556Z,1.70
2023-10-17T02:27:15.323Z,1.63
2023-10-17T02:29:48.688Z,2.23
2023-10-17T02:32:19.720Z,1.97
2023-10-17T02:34:48.463Z,1.80
2023-10-17T02:37:20.630Z,1.83
2023-10-17T02:39:49.026Z,2.60
2023-10-17T02:42:17.393Z,2.10
2023-10-17T02:44:47.190Z,2.33
2023-10-17T02:47:16.727Z,2.57
2023-10-17T02:49:47.228Z,2.73
2023-10-17T02:52:18.810Z,2.37
2023-10-17T02:55:01.344Z,2.63
2023-10-17T02:57:34.578Z,2.63
2023-10-17T03:00:22.743Z,2.77
2023-10-17T03:02:51.740Z,2.80
2023-10-17T03:05:20.636Z,3.37
2023-10-17T03:07:52.233Z,4.00
2023-10-17T03:10:27.781Z,4.00
2023-10-17T03:12:56.643Z,3.43
2023-10-17T03:15:30.862Z,3.70
2023-10-17T03:18:02.123Z,3.73
2023-10-17T03:20:42.298Z,3.90
2023-10-17T03:23:11.656Z,3.83
2023-10-17T03:25:39.131Z,3.63
2023-10-17T03:28:10.148Z,3.97
2023-10-17T03:30:40.007Z,5.03
2023-10-17T03:33:09.757Z,3.93
2023-10-17T03:35:47.133Z,3.73
2023-10-17T03:38:16.646Z,4.67
2023-10-17T03:40:53.240Z,4.10
2023-10-17T03:43:23.682Z,4.40
2023-10-17T03:45:58.156Z,4.87
2023-10-17T03:48:30.283Z,5.00
2023-10-17T03:51:10.360Z,4.13
2023-10-17T03:53:46.113Z,4.63
2023-10-17T03:56:24.276Z,4.27
2023-10-17T03:58:58.606Z,5.37
2023-10-17T04:01:28.821Z,4.93
2023-10-17T04:03:58.192Z,4.13
2023-10-17T04:06:40.651Z,4.00
2023-10-17T04:09:18.484Z,4.13
2023-10-17T04:11:48.139Z,4.90
2023-10-17T04:14:18.509Z,4.00
2023-10-17T04:16:49.732Z,3.80
2023-10-17T04:19:21.443Z,3.40
2023-10-17T04:22:14.058Z,3.43
2023-10-17T04:24:47.272Z,4.20
2023-10-17T04:27:32.286Z,3.90
2023-10-17T04:30:01.067Z,4.23
2023-10-17T04:32:34.882Z,3.80
2023-10-17T04:35:04.213Z,4.97
2023-10-17T04:37:39.035Z,4.37
2023-10-17T04:40:27.621Z,3.20
2023-10-17T04:43:19.466Z,3.50
2023-10-17T04:45:57.007Z,3.97
2023-10-17T04:48:35.641Z,4.17
2023-10-17T04:51:14.683Z,4.03
2023-10-17T04:53:49.468Z,3.57
2023-10-17T04:56:17.935Z,3.50
2023-10-17T04:58:54.967Z,3.53
2023-10-17T05:01:37.007Z,3.57
2023-10-17T05:04:20.395Z,3.03
2023-10-17T05:07:07.223Z,4.47
2023-10-17T05:09:53.332Z,4.20
2023-10-17T05:12:39.409Z,3.57
2023-10-17T05:15:31.415Z,4.57
2023-10-17T05:18:17.667Z,3.47
2023-10-17T05:21:05.285Z,4.27
2023-10-17T05:23:51.269Z,4.13
2023-10-17T05:26:37.355Z,3.87
2023-10-17T05:29:23.301Z,3.30
2023-10-17T05:32:09.313Z,3.80
2023-10-17T05:34:55.305Z,4.00
2023-10-17T05:37:42.717Z,3.23
2023-10-17T05:40:28.862Z,3.13
2023-10-17T05:43:14.951Z,2.73
2023-10-17T05:46:01.101Z,3.23
2023-10-17T05:48:47.190Z,3.10
2023-10-17T05:51:33.300Z,2.73
2023-10-17T05:54:45.639Z,3.00
2023-10-17T05:57:26.614Z,2.47
2023-10-17T06:00:12.664Z,2.03
2023-10-17T06:02:58.900Z,2.53
2023-10-17T06:05:44.689Z,3.17
2023-10-17T06:08:30.633Z,3.10
2023-10-17T06:11:17.933Z,2.70
2023-10-17T06:14:03.928Z,2.93
2023-10-17T06:16:49.929Z,2.67
2023-10-17T06:19:22.489Z,2.53
2023-10-17T06:22:10.974Z,2.57
2023-10-17T06:24:57.488Z,2.93
2023-10-17T06:27:59.225Z,2.53
2023-10-17T06:30:34.576Z,2.73
2023-10-17T06:33:15.665Z,2.40
2023-10-17T06:35:45.968Z,2.10
2023-10-17T06:38:17.401Z,1.83
2023-10-17T06:40:52.633Z,3.13
2023-10-17T06:43:32.227Z,1.80
2023-10-17T06:46:06.850Z,2.40
2023-10-17T06:48:37.155Z,2.43
2023-10-17T06:51:28.643Z,1.87
2023-10-17T06:53:57.671Z,1.97
2023-10-17T06:56:27.063Z,2.10
2023-10-17T06:59:05.554Z,2.20
2023-10-17T07:01:36.402Z,2.57
2023-10-17T07:04:12.754Z,2.20
2023-10-17T07:06:41.967Z,2.00
2023-10-17T07:09:20.012Z,2.80
2023-10-17T07:11:49.756Z,2.20
2023-10-17T07:14:25.653Z,2.10
2023-10-17T07:17:01.880Z,1.80
2023-10-17T07:19:53.497Z,2.23
2023-10-17T07:22:22.414Z,1.50
2023-10-17T07:24:51.471Z,1.47
2023-10-17T07:27:28.368Z,1.40
2023-10-17T07:30:03.208Z,1.23
2023-10-17T07:32:46.386Z,1.47
2023-10-17T07:35:17.284Z,1.20
2023-10-17T07:37:56.404Z,1.33
2023-10-17T07:40:34.631Z,1.30
2023-10-17T07:43:03.059Z,1.30
2023-10-17T07:45:41.452Z,1.20
2023-10-17T07:48:25.456Z,1.13
2023-10-17T07:50:55.656Z,1.13
2023-10-17T07:53:24.335Z,0.93
2023-10-17T07:55:54.316Z,1.00
2023-10-17T07:58:36.591Z,1.07
2023-10-17T08:01:16.070Z,1.00
2023-10-17T08:03:56.014Z,0.80
2023-10-17T08:06:30.325Z,0.97
2023-10-17T08:09:00.679Z,0.93
2023-10-17T08:11:31.818Z,1.10
2023-10-17T08:14:04.653Z,1.10
2023-10-17T08:16:40.662Z,0.93
2023-10-17T08:19:16.174Z,1.10
2023-10-17T08:21:50.660Z,1.30
2023-10-17T08:24:28.134Z,1.13
2023-10-17T08:27:10.962Z,1.10
2023-10-17T08:29:41.700Z,0.80
2023-10-17T08:32:39.378Z,0.90
2023-10-17T08:35:11.554Z,1.10
2023-10-17T08:37:44.803Z,0.73
2023-10-17T08:40:30.630Z,1.07
2023-10-17T08:42:59.070Z,1.00
2023-10-17T08:45:27.578Z,0.90
2023-10-17T08:48:02.065Z,1.00
2023-10-17T08:50:31.901Z,1.17
2023-10-17T08:53:00.819Z,1.00
2023-10-17T08:55:29.267Z,1.00
2023-10-17T08:58:00.781Z,0.53
2023-10-17T09:00:43.170Z,0.70
2023-10-17T09:03:13.383Z,0.70
2023-10-17T09:05:59.280Z,0.63
2023-10-17T09:08:43.409Z,0.70
2023-10-17T09:11:15.390Z,0.70
2023-10-17T09:14:09.929Z,0.60
2023-10-17T09:16:42.459Z,0.60
2023-10-17T09:19:12.468Z,0.70
2023-10-17T09:21:43.392Z,0.60
2023-10-17T09:24:27.008Z,0.67
2023-10-17T09:26:57.464Z,0.63
2023-10-17T09:29:28.599Z,0.43
2023-10-17T09:31:57.458Z,0.80
2023-10-17T09:34:29.665Z,0.40
2023-10-17T09:39:38.130Z,0.40
2023-10-17T09:42:07.157Z,0.57
2023-10-17T09:44:36.901Z,0.40
2023-10-17T09:47:07.611Z,0.70
2023-10-17T09:49:38.799Z,0.63
2023-10-17T09:52:10.898Z,0.43
2023-10-17T09:54:42.142Z,0.80
2023-10-17T09:57:14.176Z,0.80
2023-10-17T09:59:43.632Z,0.60
2023-10-17T10:02:12.082Z,1.30
2023-10-17T10:04:42.161Z,0.60
2023-10-17T10:07:26.908Z,0.70
2023-10-17T10:09:55.364Z,0.80
2023-10-17T10:12:23.745Z,0.70
2023-10-17T10:14:52.144Z,0.60
2023-10-17T10:17:21.200Z,0.50
2023-10-17T10:20:06.653Z,0.70
2023-10-17T10:22:53.857Z,0.40
2023-10-17T10:25:23.737Z,0.87
2023-10-17T10:28:10.297Z,0.50
2023-10-17T10:30:44.940Z,0.70
2023-10-17T10:33:14.889Z,0.70
2023-10-17T10:35:46.273Z,0.50
2023-10-17T10:38:14.658Z,0.70
2023-10-17T10:40:43.907Z,1.00
2023-10-17T10:43:13.962Z,0.60
2023-10-17T10:45:43.798Z,1.53
2023-10-17T10:48:15.686Z,1.93
2023-10-17T10:50:46.107Z,1.97
2023-10-17T10:53:24.089Z,2.10
2023-10-17T10:55:56.897Z,6.43
2023-10-17T10:58:26.031Z,6.47
2023-10-17T11:00:55.663Z,3.73
2023-10-17T11:03:25.469Z,2.20
2023-10-17T11:05:59.807Z,2.30
2023-10-17T11:08:28.492Z,2.03
2023-10-17T11:11:02.042Z,1.73
2023-10-17T11:13:35.427Z,1.30
2023-10-17T11:16:06.345Z,1.40
2023-10-17T11:18:39.491Z,1.57
2023-10-17T11:21:10.551Z,2.73
2023-10-17T11:23:40.774Z,1.60
2023-10-17T11:26:26.839Z,0.90
2023-10-17T11:28:57.074Z,1.13
2023-10-17T11:31:26.168Z,0.87
2023-10-17T11:33:58.509Z,0.60
2023-10-17T11:36:36.863Z,1.10
2023-10-17T11:39:07.128Z,0.80
2023-10-17T11:41:41.091Z,0.77
2023-10-17T11:44:10.672Z,0.70
2023-10-17T11:46:40.039Z,0.73
2023-10-17T11:49:22.225Z,0.87
2023-10-17T11:51:55.330Z,0.63
2023-10-17T11:56:57.276Z,0.70
2023-10-17T11:59:26.712Z,0.80
2023-10-17T12:01:55.105Z,1.37
2023-10-17T12:04:24.939Z,1.50
2023-10-17T12:06:54.805Z,0.73
2023-10-17T12:09:25.109Z,1.00
2023-10-17T12:11:53.829Z,1.10
2023-10-17T12:14:22.211Z,1.30
2023-10-17T12:16:55.090Z,1.37
2023-10-17T12:19:23.809Z,1.47
2023-10-17T12:21:52.217Z,0.90
2023-10-17T12:24:25.704Z,0.93
2023-10-17T12:26:54.437Z,1.23
2023-10-17T12:29:27.093Z,1.43
2023-10-17T12:31:55.574Z,1.20
2023-10-17T12:34:23.960Z,1.20
2023-10-17T12:36:52.523Z,1.10
2023-10-17T12:39:22.824Z,1.23
2023-10-17T12:41:52.232Z,1.40
2023-10-17T12:44:20.723Z,1.00
2023-10-17T12:46:49.230Z,0.90
2023-10-17T12:49:18.062Z,1.30
2023-10-17T12:51:48.427Z,1.60
2023-10-17T12:54:17.040Z,1.33
2023-10-17T12:56:46.972Z,1.33
2023-10-17T12:59:15.300Z,1.63
2023-10-17T13:01:45.226Z,1.30
2023-10-17T13:04:13.770Z,1.50
2023-10-17T13:06:43.315Z,1.30
2023-10-17T13:09:12.714Z,1.37
2023-10-17T13:11:41.124Z,1.20
2023-10-17T13:14:10.816Z,1.17
2023-10-17T13:16:40.032Z,1.50
2023-10-17T13:19:09.310Z,1.20
2023-10-17T13:21:38.831Z,0.77
2023-10-17T13:24:10.792Z,1.30
2023-10-17T13:26:39.558Z,0.97
2023-10-17T13:29:07.912Z,0.90
2023-10-17T13:31:38.444Z,0.80
2023-10-17T13:34:06.911Z,2.17
2023-10-17T13:36:35.339Z,1.30
2023-10-17T13:39:06.874Z,1.40
2023-10-17T13:41:35.300Z,1.87
2023-10-17T13:44:03.668Z,1.10
2023-10-17T13:46:33.843Z,1.10
2023-10-17T13:49:03.842Z,1.30
2023-10-17T13:51:36.591Z,1.30
2023-10-17T13:54:07.194Z,1.57
2023-10-17T13:56:35.818Z,1.10
2023-10-17T13:59:05.535Z,1.50
2023-10-17T14:01:42.750Z,1.73
2023-10-17T14:04:12.940Z,1.60
2023-10-17T14:06:43.523Z,1.60
2023-10-17T14:09:17.057Z,0.77
2023-10-17T14:11:47.523Z,1.00
2023-10-17T14:14:16.652Z,1.20
2023-10-17T14:16:45.422Z,1.00
2023-10-17T14:19:16.920Z,1.20
2023-10-17T14:22:02.558Z,1.10
2023-10-17T14:24:50.985Z,1.03
2023-10-17T14:27:21.708Z,0.87
2023-10-17T14:29:50.359Z,0.70
2023-10-17T14:32:18.957Z,0.57
2023-10-17T14:34:49.269Z,1.23
2023-10-17T14:37:18.981Z,0.90
2023-10-17T14:39:47.662Z,0.90
2023-10-17T14:42:16.171Z,0.90
2023-10-17T14:44:47.034Z,0.60
2023-10-17T14:47:18.274Z,1.03
2023-10-17T14:49:47.410Z,0.97
2023-10-17T14:52:19.427Z,1.00
2023-10-17T14:54:50.134Z,0.60
2023-10-17T14:57:19.281Z,0.60
2023-10-17T14:59:47.819Z,0.60
2023-10-17T15:02:16.431Z,0.70
2023-10-17T15:04:45.502Z,0.53
2023-10-17T15:07:14.252Z,0.40
2023-10-17T15:09:44.117Z,0.43
2023-10-17T15:12:12.611Z,0.50
2023-10-17T15:14:41.091Z,0.90
2023-10-17T15:17:09.694Z,0.60
2023-10-17T15:19:38.395Z,0.83
2023-10-17T15:22:06.970Z,2.77
2023-10-17T15:24:37.402Z,1.90
2023-10-17T15:27:07.326Z,2.47
2023-10-17T15:29:35.758Z,2.13
2023-10-17T15:32:05.946Z,3.20
2023-10-17T15:34:34.686Z,2.87
2023-10-17T15:37:03.061Z,1.47
2023-10-17T15:39:32.052Z,1.70
2023-10-17T15:42:00.678Z,1.30
2023-10-17T15:44:30.882Z,2.13
2023-10-17T15:46:59.339Z,1.20
2023-10-17T15:49:28.102Z,2.00
2023-10-17T15:51:57.186Z,1.90
2023-10-17T15:54:25.614Z,1.20
2023-10-17T15:56:53.983Z,1.63
2023-10-17T15:59:22.379Z,1.23
2023-10-17T16:01:52.238Z,1.80
2023-10-17T16:04:20.830Z,0.90
2023-10-17T16:06:49.469Z,1.30
2023-10-17T16:09:21.363Z,1.13
2023-10-17T16:11:49.899Z,1.40
2023-10-17T16:14:18.381Z,1.00
2023-10-17T16:16:46.851Z,0.73
2023-10-17T16:19:16.722Z,1.07
2023-10-17T16:21:46.568Z,0.90
2023-10-17T16:24:14.995Z,0.70
2023-10-17T16:26:44.815Z,0.90
2023-10-17T16:29:13.249Z,0.80
2023-10-17T16:31:41.641Z,0.90
2023-10-17T16:34:11.967Z,0.73
2023-10-17T16:36:41.749Z,0.97
2023-10-17T16:39:09.372Z,0.90
2023-10-17T16:41:37.736Z,0.70
2023-10-17T16:44:06.933Z,0.83
2023-10-17T16:46:35.416Z,1.10
2023-10-17T16:49:04.082Z,1.00
2023-10-17T16:51:32.546Z,0.97
2023-10-17T16:54:04.921Z,0.87
2023-10-17T16:56:34.587Z,0.70
2023-10-17T16:59:03.039Z,0.90
2023-10-17T17:01:32.768Z,1.20
2023-10-17T17:04:05.831Z,1.07
2023-10-17T17:06:34.723Z,1.67
2023-10-17T17:09:07.067Z,1.10
2023-10-17T17:11:35.533Z,1.10
2023-10-17T17:14:06.347Z,0.97
2023-10-17T17:16:34.912Z,1.07
2023-10-17T17:19:03.418Z,1.20
2023-10-17T17:21:31.830Z,1.50
2023-10-17T17:24:08.112Z,1.20
2023-10-17T17:26:37.928Z,2.00
2023-10-17T17:29:07.566Z,1.77
2023-10-17T17:31:36.172Z,1.90
2023-10-17T17:34:04.635Z,1.83
2023-10-17T17:36:34.155Z,1.90
2023-10-17T17:39:02.512Z,2.20
2023-10-17T17:41:30.892Z,1.90
2023-10-17T17:44:00.582Z,2.50
2023-10-17T17:46:29.458Z,2.53
2023-10-17T17:48:57.936Z,2.13
2023-10-17T17:51:26.346Z,2.30
2023-10-17T17:53:54.699Z,2.43
2023-10-17T17:56:23.025Z,1.87
2023-10-17T17:58:52.511Z,2.00
2023-10-17T18:01:22.434Z,2.60
2023-10-17T18:03:51.557Z,2.53
2023-10-17T18:06:20.391Z,2.53
2023-10-17T18:08:49.567Z,2.70
2023-10-17T18:11:17.925Z,2.03
2023-10-17T18:13:46.760Z,2.40
2023-10-17T18:16:15.753Z,2.60
2023-10-17T18:18:45.879Z,2.57
2023-10-17T18:21:17.157Z,2.50
2023-10-17T18:23:45.558Z,2.30
2023-10-17T18:26:17.441Z,2.63
2023-10-17T18:28:45.791Z,2.33
2023-10-17T18:31:14.988Z,2.10
2023-10-17T18:33:43.754Z,2.70
2023-10-17T18:36:14.805Z,2.60
2023-10-17T18:38:43.381Z,1.97
2023-10-17T18:41:12.623Z,2.40
2023-10-17T18:43:43.691Z,2.93
2023-10-17T18:46:13.630Z,2.30
2023-10-17T18:48:42.354Z,2.50
2023-10-17T18:51:12.632Z,2.47
2023-10-17T18:53:43.577Z,3.20
2023-10-17T18:56:11.927Z,2.53
2023-10-17T18:58:40.620Z,2.70
2023-10-17T19:01:14.578Z,2.87
2023-10-17T19:03:43.931Z,3.23
2023-10-17T19:06:12.658Z,3.30
2023-10-17T19:08:43.673Z,3.40
2023-10-17T19:11:13.393Z,3.10
2023-10-17T19:13:42.561Z,3.37
2023-10-17T19:16:15.744Z,3.20
2023-10-17T19:18:44.383Z,2.80
2023-10-17T19:21:15.698Z,2.43
2023-10-17T19:23:50.428Z,3.07
2023-10-17T19:26:20.194Z,3.37
2023-10-17T19:28:49.227Z,3.50
2023-10-17T19:31:20.314Z,3.33
2023-10-17T19:33:48.783Z,3.57
2023-10-17T19:36:17.259Z,3.07
2023-10-17T19:38:46.992Z,3.83
2023-10-17T19:41:15.642Z,3.50
2023-10-17T19:43:44.499Z,3.63
2023-10-17T19:46:13.008Z,3.77
2023-10-17T19:48:41.544Z,3.37
2023-10-17T19:51:11.374Z,3.73
2023-10-17T19:53:40.110Z,3.17
2023-10-17T19:56:10.382Z,3.70
2023-10-17T19:58:39.592Z,4.07
2023-10-17T20:01:08.197Z,3.50
2023-10-17T20:03:37.126Z,3.40
2023-10-17T20:06:06.699Z,3.53
2023-10-17T20:08:35.068Z,3.20
2023-10-17T20:11:03.402Z,3.27
2023-10-17T20:13:33.518Z,3.23
2023-10-17T20:16:02.129Z,3.60
2023-10-17T20:18:31.862Z,3.83
2023-10-17T20:21:00.317Z,4.10
2023-10-17T20:23:28.680Z,3.83
2023-10-17T20:25:57.094Z,3.83
2023-10-17T20:28:25.451Z,3.60
2023-10-17T20:30:55.222Z,3.03
2023-10-17T20:33:23.591Z,3.70
2023-10-17T20:35:51.963Z,3.40
2023-10-17T20:38:20.863Z,3.40
2023-10-17T20:40:49.345Z,3.33
2023-10-17T20:43:17.699Z,3.50
2023-10-17T20:45:46.360Z,2.70
2023-10-17T20:48:16.102Z,3.57
2023-10-17T20:50:45.640Z,2.93
2023-10-17T20:53:14.507Z,2.63
2023-10-17T20:55:42.896Z,3.30
2023-10-17T20:58:11.680Z,2.67
2023-10-17T21:00:40.693Z,3.20
2023-10-17T21:03:11.038Z,2.50
2023-10-17T21:05:40.949Z,3.40
2023-10-17T21:08:09.755Z,3.20
2023-10-17T21:10:43.104Z,2.97
2023-10-17T21:13:11.470Z,4.00
2023-10-17T21:15:40.475Z,2.63
2023-10-17T21:18:13.066Z,2.87
2023-10-17T21:20:42.831Z,2.90
2023-10-17T21:23:12.057Z,2.83
2023-10-17T21:25:41.329Z,3.17
2023-10-17T21:28:09.792Z,2.90
2023-10-17T21:30:38.885Z,3.20
2023-10-17T21:33:07.405Z,2.60
2023-10-17T21:35:37.461Z,2.60
2023-10-17T21:38:07.458Z,3.10
2023-10-17T21:40:35.804Z,2.87
2023-10-17T21:43:05.246Z,3.13
2023-10-17T21:45:33.696Z,2.60
2023-10-17T21:48:02.066Z,2.73
2023-10-17T21:50:30.426Z,2.90
2023-10-17T21:52:59.156Z,3.27
2023-10-17T21:55:29.723Z,2.80
2023-10-17T21:57:58.580Z,3.03
2023-10-17T22:00:38.454Z,2.40
2023-10-17T22:03:07.580Z,2.23
2023-10-17T22:05:37.416Z,2.60
2023-10-17T22:08:06.300Z,2.70
2023-10-17T22:10:36.037Z,2.60
2023-10-17T22:13:06.245Z,2.33
2023-10-17T22:15:36.587Z,2.50
2023-10-17T22:18:05.276Z,2.20
2023-10-17T22:20:33.788Z,2.13
2023-10-17T22:23:02.131Z,2.00
2023-10-17T22:25:30.532Z,2.50
2023-10-17T22:28:00.373Z,2.33
2023-10-17T22:30:28.734Z,2.27
2023-10-17T22:32:57.571Z,2.03
2023-10-17T22:35:25.948Z,1.87
2023-10-17T22:37:54.277Z,1.77
2023-10-17T22:40:22.622Z,2.10
2023-10-17T22:42:52.973Z,2.30
2023-10-17T22:45:22.799Z,1.37
2023-10-17T22:47:53.780Z,1.90
2023-10-17T22:50:22.903Z,1.97
2023-10-17T22:52:51.299Z,2.00
2023-10-17T22:55:19.635Z,1.93
2023-10-17T22:57:48.027Z,1.77
2023-10-17T23:00:16.530Z,1.43
2023-10-17T23:02:49.343Z,2.17
2023-10-17T23:05:18.126Z,1.50
2023-10-17T23:07:47.395Z,1.70
2023-10-17T23:10:16.881Z,1.43
2023-10-17T23:12:45.550Z,1.53
2023-10-17T23:15:15.090Z,1.47
2023-10-17T23:17:43.843Z,1.87
2023-10-17T23:20:16.112Z,1.67
2023-10-17T23:22:45.156Z,1.53
2023-10-17T23:25:13.642Z,1.80
2023-10-17T23:27:42.209Z,1.30
2023-10-17T23:30:12.027Z,1.83
2023-10-17T23:32:40.461Z,1.73
2023-10-17T23:35:09.699Z,1.00
2023-10-17T23:37:39.810Z,1.50
2023-10-17T23:40:11.032Z,1.57
2023-10-17T23:42:39.669Z,1.23
2023-10-17T23:45:08.435Z,1.40
2023-10-17T23:47:36.998Z,1.83
2023-10-17T23:50:12.027Z,1.97
2023-10-17T23:52:42.003Z,1.50
2023-10-17T23:55:10.750Z,1.50
2023-10-17T23:57:39.475Z,1.27
